createdAt,value
2022-11-05T00:00:43.242Z,0.00
2022-11-05T00:01:43.273Z,0.00
2022-11-05T00:02:43.221Z,0.00
2022-11-05T00:03:43.320Z,0.00
2022-11-05T00:04:43.203Z,0.00
2022-11-05T00:05:43.221Z,0.00
2022-11-05T00:06:43.197Z,0.00
2022-11-05T00:07:43.159Z,0.00
2022-11-05T00:08:43.162Z,0.00
2022-11-05T00:09:43.147Z,0.00
2022-11-05T00:10:43.141Z,0.00
2022-11-05T00:11:43.153Z,0.00
2022-11-05T00:12:43.155Z,0.00
2022-11-05T00:13:43.119Z,0.00
2022-11-05T00:14:43.086Z,0.00
2022-11-05T00:15:43.183Z,0.00
2022-11-05T00:16:43.105Z,0.00
2022-11-05T00:17:43.065Z,0.00
2022-11-05T00:18:43.062Z,0.00
2022-11-05T00:19:43.053Z,0.00
2022-11-05T00:20:43.049Z,0.00
2022-11-05T00:21:43.025Z,0.00
2022-11-05T00:22:43.010Z,0.00
2022-11-05T00:23:43.003Z,0.00
2022-11-05T00:24:42.984Z,0.00
2022-11-05T00:25:42.995Z,0.00
2022-11-05T00:26:42.963Z,0.00
2022-11-05T00:27:42.959Z,0.00
2022-11-05T00:28:42.937Z,0.00
2022-11-05T00:29:42.933Z,0.00
2022-11-05T00:30:42.930Z,0.00
2022-11-05T00:31:42.956Z,0.00
2022-11-05T00:32:42.916Z,0.00
2022-11-05T00:33:42.913Z,0.00
2022-11-05T00:34:42.883Z,0.00
2022-11-05T00:35:42.886Z,0.00
2022-11-05T00:36:42.876Z,0.00
2022-11-05T00:37:48.735Z,0.00
2022-11-05T00:38:43.870Z,0.00
2022-11-05T00:39:42.834Z,0.00
2022-11-05T00:40:42.819Z,0.00
2022-11-05T00:41:42.809Z,0.00
2022-11-05T00:42:42.806Z,0.00
2022-11-05T00:43:42.844Z,0.00
2022-11-05T00:44:42.777Z,0.00
2022-11-05T00:45:42.774Z,0.00
2022-11-05T00:46:42.758Z,0.00
2022-11-05T00:47:42.755Z,0.00
2022-11-05T00:48:42.743Z,0.00
2022-11-05T00:49:42.737Z,0.00
2022-11-05T00:50:42.725Z,0.00
2022-11-05T00:51:42.717Z,0.00
2022-11-05T00:52:42.698Z,0.00
2022-11-05T00:53:42.672Z,0.00
2022-11-05T00:54:42.661Z,0.00
2022-11-05T00:55:42.674Z,0.00
2022-11-05T00:56:42.671Z,0.00
2022-11-05T00:57:42.632Z,0.00
2022-11-05T00:58:42.621Z,0.00
2022-11-05T00:59:42.622Z,0.00
2022-11-05T01:00:42.622Z,0.00
2022-11-05T01:01:42.709Z,0.00
2022-11-05T01:02:42.789Z,0.00
2022-11-05T01:03:45.133Z,0.00
2022-11-05T01:04:43.557Z,0.00
2022-11-05T01:05:42.555Z,0.00
2022-11-05T01:06:42.545Z,0.00
2022-11-05T01:07:42.538Z,0.00
2022-11-05T01:08:42.525Z,0.00
2022-11-05T01:09:42.511Z,0.00
2022-11-05T01:10:42.543Z,0.00
2022-11-05T01:11:42.492Z,0.00
2022-11-05T01:12:42.488Z,0.00
2022-11-05T01:13:42.485Z,0.00
2022-11-05T01:14:42.459Z,0.00
2022-11-05T01:15:42.447Z,0.00
2022-11-05T01:16:42.447Z,0.00
2022-11-05T01:17:42.433Z,0.00
2022-11-05T01:18:42.413Z,0.00
2022-11-05T01:19:42.428Z,0.00
2022-11-05T01:20:42.387Z,0.00
2022-11-05T01:21:42.387Z,0.00
2022-11-05T01:22:42.393Z,0.00
2022-11-05T01:23:42.368Z,0.00
2022-11-05T01:24:42.347Z,0.00
2022-11-05T01:25:42.344Z,0.00
2022-11-05T01:26:42.333Z,0.00
2022-11-05T01:27:42.370Z,0.00
2022-11-05T01:28:42.367Z,0.00
2022-11-05T01:29:42.289Z,0.00
2022-11-05T01:30:42.289Z,0.00
2022-11-05T01:31:42.269Z,0.00
2022-11-05T01:32:42.270Z,0.00
2022-11-05T01:33:42.277Z,0.00
2022-11-05T01:34:42.232Z,0.00
2022-11-05T01:35:42.254Z,0.00
2022-11-05T01:36:42.220Z,0.00
2022-11-05T01:37:42.214Z,0.00
2022-11-05T01:38:42.214Z,0.00
2022-11-05T01:39:42.204Z,0.00
2022-11-05T01:40:42.185Z,0.00
2022-11-05T01:41:42.169Z,0.00
2022-11-05T01:42:42.151Z,0.00
2022-11-05T01:43:42.162Z,0.00
2022-11-05T01:44:42.125Z,0.00
2022-11-05T01:45:42.144Z,0.00
2022-11-05T01:46:42.114Z,0.00
2022-11-05T01:47:42.112Z,0.00
2022-11-05T01:48:42.105Z,0.00
2022-11-05T01:49:42.093Z,0.00
2022-11-05T01:50:42.078Z,0.00
2022-11-05T01:51:42.079Z,0.00
2022-11-05T01:52:42.043Z,0.00
2022-11-05T01:53:42.044Z,0.00
2022-11-05T01:54:42.041Z,0.00
2022-11-05T01:55:42.058Z,0.00
2022-11-05T01:56:42.006Z,0.00
2022-11-05T01:57:41.998Z,0.00
2022-11-05T01:58:41.994Z,0.00
2022-11-05T01:59:41.974Z,0.00
2022-11-05T02:00:41.982Z,0.00
2022-11-05T02:01:42.072Z,0.00
2022-11-05T02:02:42.108Z,0.00
2022-11-05T02:03:41.926Z,0.00
2022-11-05T02:04:41.933Z,0.00
2022-11-05T02:05:41.912Z,0.00
2022-11-05T02:06:41.910Z,0.00
2022-11-05T02:07:41.912Z,0.00
2022-11-05T02:08:41.873Z,0.00
2022-11-05T02:09:41.871Z,0.00
2022-11-05T02:10:41.876Z,0.00
2022-11-05T02:11:41.844Z,0.00
2022-11-05T02:12:41.843Z,0.00
2022-11-05T02:13:41.865Z,0.00
2022-11-05T02:14:41.815Z,0.00
2022-11-05T02:15:41.810Z,0.00
2022-11-05T02:16:41.799Z,0.00
2022-11-05T02:17:41.773Z,0.00
2022-11-05T02:18:41.767Z,0.00
2022-11-05T02:19:41.760Z,0.00
2022-11-05T02:20:41.756Z,0.00
2022-11-05T02:21:41.750Z,0.00
2022-11-05T02:22:41.728Z,0.00
2022-11-05T02:23:41.746Z,0.00
2022-11-05T02:24:41.725Z,0.00
2022-11-05T02:25:41.714Z,0.00
2022-11-05T02:26:41.686Z,0.00
2022-11-05T02:27:41.665Z,0.00
2022-11-05T02:28:41.679Z,0.00
2022-11-05T02:29:41.645Z,0.00
2022-11-05T02:30:41.646Z,0.00
2022-11-05T02:31:41.623Z,0.00
2022-11-05T02:32:41.624Z,0.00
2022-11-05T02:33:41.612Z,0.00
2022-11-05T02:34:41.602Z,0.00
2022-11-05T02:35:41.583Z,0.00
2022-11-05T02:36:41.587Z,0.00
2022-11-05T02:37:41.562Z,0.00
2022-11-05T02:38:41.555Z,0.00
2022-11-05T02:39:41.562Z,0.00
2022-11-05T02:40:41.555Z,0.00
2022-11-05T02:41:41.529Z,0.00
2022-11-05T02:42:41.533Z,0.00
2022-11-05T02:43:41.502Z,0.00
2022-11-05T02:44:41.492Z,0.00
2022-11-05T02:45:41.497Z,0.00
2022-11-05T02:46:41.476Z,0.00
2022-11-05T02:47:41.453Z,0.00
2022-11-05T02:48:41.458Z,0.00
2022-11-05T02:49:41.452Z,0.00
2022-11-05T02:50:41.470Z,0.00
2022-11-05T02:51:41.430Z,0.00
2022-11-05T02:52:41.401Z,0.00
2022-11-05T02:53:41.403Z,0.00
2022-11-05T02:54:41.383Z,0.00
2022-11-05T02:55:41.383Z,0.00
2022-11-05T02:56:41.382Z,0.00
2022-11-05T02:57:41.365Z,0.00
2022-11-05T02:58:41.376Z,0.00
2022-11-05T02:59:41.340Z,0.00
2022-11-05T03:00:41.318Z,0.00
2022-11-05T03:01:41.573Z,0.00
2022-11-05T03:02:41.440Z,0.00
2022-11-05T03:03:41.290Z,0.00
2022-11-05T03:04:41.287Z,0.00
2022-11-05T03:05:41.272Z,0.00
2022-11-05T03:06:41.289Z,0.00
2022-11-05T03:07:41.241Z,0.00
2022-11-05T03:08:41.253Z,0.00
2022-11-05T03:09:41.218Z,0.00
2022-11-05T03:10:41.204Z,0.00
2022-11-05T03:11:41.221Z,0.00
2022-11-05T03:12:41.240Z,0.00
2022-11-05T03:13:41.181Z,0.00
2022-11-05T03:14:41.171Z,0.00
2022-11-05T03:15:41.157Z,0.00
2022-11-05T03:16:41.157Z,0.00
2022-11-05T03:17:41.148Z,0.00
2022-11-05T03:18:41.160Z,0.00
2022-11-05T03:19:41.143Z,0.00
2022-11-05T03:20:41.102Z,0.00
2022-11-05T03:21:41.097Z,0.00
2022-11-05T03:22:41.088Z,0.00
2022-11-05T03:23:41.073Z,0.00
2022-11-05T03:24:41.074Z,0.00
2022-11-05T03:25:41.085Z,0.00
2022-11-05T03:26:41.047Z,0.00
2022-11-05T03:27:41.058Z,0.00
2022-11-05T03:28:41.025Z,0.00
2022-11-05T03:29:41.009Z,0.00
2022-11-05T03:30:41.019Z,0.00
2022-11-05T03:31:40.987Z,0.00
2022-11-05T03:32:40.974Z,0.00
2022-11-05T03:33:40.985Z,0.00
2022-11-05T03:34:40.953Z,0.00
2022-11-05T03:35:40.965Z,0.00
2022-11-05T03:36:40.933Z,0.00
2022-11-05T03:37:40.922Z,0.00
2022-11-05T03:38:40.911Z,0.00
2022-11-05T03:39:40.922Z,0.00
2022-11-05T03:40:40.925Z,0.00
2022-11-05T03:41:40.891Z,0.00
2022-11-05T03:42:40.871Z,0.00
2022-11-05T03:43:40.872Z,0.00
2022-11-05T03:44:40.851Z,0.00
2022-11-05T03:45:40.854Z,0.00
2022-11-05T03:46:40.860Z,0.00
2022-11-05T03:47:40.824Z,0.00
2022-11-05T03:48:40.918Z,0.00
2022-11-05T03:49:40.822Z,0.00
2022-11-05T03:50:41.626Z,0.00
2022-11-05T03:51:40.794Z,0.00
2022-11-05T03:52:40.783Z,0.00
2022-11-05T03:53:40.769Z,0.00
2022-11-05T03:54:40.750Z,0.00
2022-11-05T03:55:40.734Z,0.00
2022-11-05T03:56:40.716Z,0.00
2022-11-05T03:57:40.720Z,0.00
2022-11-05T03:58:40.698Z,0.00
2022-11-05T03:59:40.795Z,0.00
2022-11-05T04:00:40.679Z,0.00
2022-11-05T04:01:40.819Z,0.00
2022-11-05T04:02:40.852Z,0.00
2022-11-05T04:03:40.654Z,0.00
2022-11-05T04:04:40.640Z,0.00
2022-11-05T04:05:40.640Z,0.00
2022-11-05T04:06:40.614Z,0.00
2022-11-05T04:07:40.631Z,0.00
2022-11-05T04:08:40.625Z,0.00
2022-11-05T04:09:40.587Z,0.00
2022-11-05T04:10:40.581Z,0.00
2022-11-05T04:11:40.566Z,0.00
2022-11-05T04:12:40.556Z,0.00
2022-11-05T04:13:40.541Z,0.00
2022-11-05T04:14:40.547Z,0.00
2022-11-05T04:15:40.715Z,0.00
2022-11-05T04:16:40.512Z,0.00
2022-11-05T04:17:40.515Z,0.00
2022-11-05T04:18:40.498Z,0.00
2022-11-05T04:19:40.505Z,0.00
2022-11-05T04:20:40.467Z,0.00
2022-11-05T04:21:40.450Z,0.00
2022-11-05T04:22:40.443Z,0.00
2022-11-05T04:23:40.454Z,0.00
2022-11-05T04:24:40.427Z,0.00
2022-11-05T04:25:40.430Z,0.00
2022-11-05T04:26:40.400Z,0.00
2022-11-05T04:27:40.389Z,0.00
2022-11-05T04:28:40.380Z,0.00
2022-11-05T04:29:40.384Z,0.00
2022-11-05T04:30:40.366Z,0.00
2022-11-05T04:31:40.371Z,0.00
2022-11-05T04:32:40.334Z,0.00
2022-11-05T04:33:40.327Z,0.00
2022-11-05T04:34:40.332Z,0.00
2022-11-05T04:35:40.308Z,0.00
2022-11-05T04:36:40.303Z,0.00
2022-11-05T04:37:40.281Z,0.00
2022-11-05T04:38:40.303Z,0.00
2022-11-05T04:39:40.262Z,0.00
2022-11-05T04:40:40.260Z,0.00
2022-11-05T04:41:40.254Z,0.00
2022-11-05T04:42:40.250Z,0.00
2022-11-05T04:43:40.218Z,0.00
2022-11-05T04:44:40.214Z,0.00
2022-11-05T04:45:40.218Z,0.00
2022-11-05T04:46:40.188Z,0.00
2022-11-05T04:47:40.193Z,0.00
2022-11-05T04:48:40.156Z,0.00
2022-11-05T04:49:40.178Z,0.00
2022-11-05T04:50:40.154Z,0.00
2022-11-05T04:51:40.137Z,0.00
2022-11-05T04:52:40.110Z,0.00
2022-11-05T04:53:40.112Z,0.00
2022-11-05T04:54:40.099Z,0.00
2022-11-05T04:55:40.108Z,0.00
2022-11-05T04:56:40.078Z,0.00
2022-11-05T04:57:40.067Z,0.00
2022-11-05T04:58:40.059Z,0.00
2022-11-05T04:59:40.047Z,0.00
2022-11-05T05:00:40.124Z,0.00
2022-11-05T05:01:40.137Z,0.00
2022-11-05T05:02:40.003Z,0.00
2022-11-05T05:03:40.118Z,0.00
2022-11-05T05:04:39.991Z,0.00
2022-11-05T05:05:39.978Z,0.00
2022-11-05T05:06:39.994Z,0.00
2022-11-05T05:07:40.011Z,0.00
2022-11-05T05:08:39.954Z,0.00
2022-11-05T05:09:39.939Z,0.00
2022-11-05T05:10:39.932Z,0.00
2022-11-05T05:11:39.930Z,0.00
2022-11-05T05:12:39.926Z,0.00
2022-11-05T05:13:39.899Z,0.00
2022-11-05T05:14:39.939Z,0.00
2022-11-05T05:15:39.878Z,0.00
2022-11-05T05:16:39.880Z,0.00
2022-11-05T05:17:39.860Z,0.00
2022-11-05T05:18:45.057Z,0.00
2022-11-05T05:19:41.024Z,0.00
2022-11-05T05:20:39.816Z,0.00
2022-11-05T05:21:39.821Z,0.00
2022-11-05T05:22:39.825Z,0.00
2022-11-05T05:23:39.807Z,0.00
2022-11-05T05:24:39.781Z,0.00
2022-11-05T05:25:39.785Z,0.00
2022-11-05T05:26:39.754Z,0.00
2022-11-05T05:27:39.754Z,0.00
2022-11-05T05:28:39.734Z,0.00
2022-11-05T05:29:39.739Z,0.00
2022-11-05T05:30:39.722Z,0.00
2022-11-05T05:31:39.708Z,0.00
2022-11-05T05:32:39.706Z,0.00
2022-11-05T05:33:39.695Z,0.00
2022-11-05T05:34:39.683Z,0.00
2022-11-05T05:35:39.686Z,0.00
2022-11-05T05:36:39.649Z,0.00
2022-11-05T05:37:39.680Z,0.00
2022-11-05T05:38:39.640Z,0.00
2022-11-05T05:39:39.627Z,0.00
2022-11-05T05:40:39.610Z,4.00
2022-11-05T05:41:39.627Z,4.00
2022-11-05T05:42:43.139Z,4.00
2022-11-05T05:43:39.575Z,4.00
2022-11-05T05:44:39.568Z,4.00
2022-11-05T05:45:47.198Z,8.00
2022-11-05T05:46:39.649Z,4.00
2022-11-05T05:47:50.630Z,8.00
2022-11-05T05:48:39.570Z,8.00
2022-11-05T05:49:39.542Z,8.00
2022-11-05T05:50:39.502Z,12.00
2022-11-05T05:51:39.556Z,16.00
2022-11-05T05:52:39.482Z,16.00
2022-11-05T05:53:39.494Z,16.00
2022-11-05T05:54:42.707Z,24.00
2022-11-05T05:55:39.455Z,24.00
2022-11-05T05:56:39.441Z,28.00
2022-11-05T05:57:39.443Z,36.00
2022-11-05T05:58:39.431Z,36.00
2022-11-05T05:59:39.425Z,44.00
2022-11-05T06:00:39.404Z,52.00
2022-11-05T06:01:39.560Z,60.00
2022-11-05T06:02:39.545Z,68.00
2022-11-05T06:03:39.386Z,76.00
2022-11-05T06:04:39.361Z,88.00
2022-11-05T06:05:39.346Z,96.00
2022-11-05T06:06:39.336Z,112.00
2022-11-05T06:07:39.356Z,120.00
2022-11-05T06:08:39.317Z,136.00
2022-11-05T06:09:39.325Z,148.00
2022-11-05T06:10:39.353Z,160.00
2022-11-05T06:11:39.304Z,172.00
2022-11-05T06:12:39.321Z,192.00
2022-11-05T06:13:39.294Z,208.00
2022-11-05T06:14:39.254Z,224.00
2022-11-05T06:15:39.241Z,240.00
2022-11-05T06:16:39.230Z,260.00
2022-11-05T06:17:39.223Z,280.00
2022-11-05T06:18:39.219Z,308.00
2022-11-05T06:19:39.187Z,336.00
2022-11-05T06:20:39.176Z,368.00
2022-11-05T06:21:39.172Z,404.00
2022-11-05T06:22:39.166Z,440.00
2022-11-05T06:23:39.182Z,484.00
2022-11-05T06:24:39.143Z,528.00
2022-11-05T06:25:41.371Z,576.00
2022-11-05T06:26:39.116Z,624.00
2022-11-05T06:27:39.125Z,676.00
2022-11-05T06:28:39.160Z,724.00
2022-11-05T06:29:39.107Z,772.00
2022-11-05T06:30:39.103Z,820.00
2022-11-05T06:31:39.088Z,864.00
2022-11-05T06:32:39.072Z,904.00
2022-11-05T06:33:39.062Z,940.00
2022-11-05T06:34:39.062Z,980.00
2022-11-05T06:35:39.062Z,1016.00
2022-11-05T06:36:39.039Z,1056.00
2022-11-05T06:37:39.006Z,1084.00
2022-11-05T06:38:39.002Z,1120.00
2022-11-05T06:39:39.015Z,1148.00
2022-11-05T06:40:38.975Z,1184.00
2022-11-05T06:42:04.089Z,1212.00
2022-11-05T06:42:39.987Z,1244.00
2022-11-05T06:43:38.947Z,1280.00
2022-11-05T06:44:38.945Z,1312.00
2022-11-05T06:45:38.909Z,1344.00
2022-11-05T06:46:38.910Z,1372.00
2022-11-05T06:47:38.897Z,1408.00
2022-11-05T06:48:38.932Z,1444.00
2022-11-05T06:49:38.912Z,1480.00
2022-11-05T06:50:38.860Z,1516.00
2022-11-05T06:51:38.887Z,1548.00
2022-11-05T06:52:41.223Z,1588.00
2022-11-05T06:53:38.820Z,1624.00
2022-11-05T06:54:46.487Z,1656.00
2022-11-05T06:55:46.426Z,1692.00
2022-11-05T06:56:38.850Z,1724.00
2022-11-05T06:57:38.905Z,1752.00
2022-11-05T06:58:48.698Z,1784.00
2022-11-05T06:59:47.322Z,1804.00
2022-11-05T07:00:47.536Z,1828.00
2022-11-05T07:01:46.496Z,1852.00
2022-11-05T07:02:48.381Z,1864.00
2022-11-05T07:03:38.866Z,1880.00
2022-11-05T07:04:38.785Z,1896.00
2022-11-05T07:05:38.709Z,1908.00
2022-11-05T07:06:38.709Z,1924.00
2022-11-05T07:07:38.687Z,1936.00
2022-11-05T07:08:38.670Z,1944.00
2022-11-05T07:09:38.673Z,1956.00
2022-11-05T07:10:38.792Z,1964.00
2022-11-05T07:11:38.673Z,1968.00
2022-11-05T07:12:38.620Z,1976.00
2022-11-05T07:13:38.619Z,1980.00
2022-11-05T07:14:38.641Z,1980.00
2022-11-05T07:15:38.596Z,1984.00
2022-11-05T07:16:38.603Z,1984.00
2022-11-05T07:17:38.562Z,1984.00
2022-11-05T07:18:47.808Z,1984.00
2022-11-05T07:19:38.690Z,1984.00
2022-11-05T07:20:38.636Z,1984.00
2022-11-05T07:21:38.560Z,1984.00
2022-11-05T07:22:38.581Z,1988.00
2022-11-05T07:23:38.529Z,1976.00
2022-11-05T07:24:38.516Z,1976.00
2022-11-05T07:25:38.497Z,1968.00
2022-11-05T07:26:38.484Z,1964.00
2022-11-05T07:27:38.476Z,1956.00
2022-11-05T07:28:38.477Z,1948.00
2022-11-05T07:29:38.465Z,1944.00
2022-11-05T07:30:38.430Z,1952.00
2022-11-05T07:31:38.431Z,1948.00
2022-11-05T07:32:38.403Z,1944.00
2022-11-05T07:33:38.498Z,1948.00
2022-11-05T07:34:38.449Z,1948.00
2022-11-05T07:35:38.382Z,1964.00
2022-11-05T07:36:38.375Z,1992.00
2022-11-05T07:37:38.386Z,2024.00
2022-11-05T07:38:38.346Z,2056.00
2022-11-05T07:39:47.073Z,2076.00
2022-11-05T07:40:38.466Z,2104.00
2022-11-05T07:41:38.401Z,2156.00
2022-11-05T07:42:38.352Z,2216.00
2022-11-05T07:43:38.315Z,2264.00
2022-11-05T07:44:38.284Z,2312.00
2022-11-05T07:45:38.287Z,2340.00
2022-11-05T07:46:38.304Z,2364.00
2022-11-05T07:47:38.257Z,2384.00
2022-11-05T07:48:47.995Z,2412.00
2022-11-05T07:49:45.945Z,2388.00
2022-11-05T07:50:46.008Z,2392.00
2022-11-05T07:51:45.904Z,2416.00
2022-11-05T07:52:46.406Z,2444.00
2022-11-05T07:54:52.693Z,2452.00
2022-11-05T07:56:01.199Z,2456.00
2022-11-05T07:57:00.280Z,2468.00
2022-11-05T07:58:01.332Z,2464.00
2022-11-05T07:59:02.283Z,2480.00
2022-11-05T08:00:02.508Z,2476.00
2022-11-05T08:02:03.130Z,2472.00
2022-11-05T08:03:10.709Z,2488.00
2022-11-05T08:04:11.542Z,2504.00
2022-11-05T08:05:12.707Z,2512.00
2022-11-05T08:06:11.477Z,2516.00
2022-11-05T08:07:02.923Z,2540.00
2022-11-05T08:08:10.798Z,2556.00
2022-11-05T08:09:02.880Z,2572.00
2022-11-05T08:10:11.359Z,2584.00
2022-11-05T08:12:13.222Z,2596.00
2022-11-05T08:13:20.806Z,2576.00
2022-11-05T08:14:13.165Z,2556.00
2022-11-05T08:15:13.192Z,2564.00
2022-11-05T08:16:13.069Z,2600.00
2022-11-05T08:17:18.209Z,2632.00
2022-11-05T08:18:14.051Z,2660.00
2022-11-05T08:19:13.040Z,2672.00
2022-11-05T08:20:13.079Z,2680.00
2022-11-05T08:21:22.810Z,2688.00
2022-11-05T08:22:13.071Z,2704.00
2022-11-05T08:23:13.385Z,2708.00
2022-11-05T08:24:12.977Z,2716.00
2022-11-05T08:25:21.578Z,2720.00
2022-11-05T08:26:13.035Z,2720.00
2022-11-05T08:27:12.988Z,2728.00
2022-11-05T08:28:13.066Z,2736.00
2022-11-05T08:29:12.960Z,2744.00
2022-11-05T08:30:12.923Z,2748.00
2022-11-05T08:31:12.939Z,2748.00
2022-11-05T08:32:12.909Z,2756.00
2022-11-05T08:33:13.381Z,2764.00
2022-11-05T08:34:12.867Z,2760.00
2022-11-05T08:35:12.860Z,2776.00
2022-11-05T08:36:12.891Z,2776.00
2022-11-05T08:37:12.850Z,2768.00
2022-11-05T08:38:12.831Z,2776.00
2022-11-05T08:39:16.781Z,2776.00
2022-11-05T08:40:12.815Z,2780.00
2022-11-05T08:41:12.810Z,2776.00
2022-11-05T08:42:12.777Z,2776.00
2022-11-05T08:43:13.216Z,2780.00
2022-11-05T08:44:12.770Z,2788.00
2022-11-05T08:45:12.869Z,2796.00
2022-11-05T08:46:12.737Z,2800.00
2022-11-05T08:47:12.725Z,2800.00
2022-11-05T08:48:12.723Z,2804.00
2022-11-05T08:49:12.698Z,2804.00
2022-11-05T08:50:12.736Z,2800.00
2022-11-05T08:51:12.690Z,2812.00
2022-11-05T08:52:12.697Z,2816.00
2022-11-05T08:53:13.048Z,2824.00
2022-11-05T08:54:12.706Z,2824.00
2022-11-05T08:55:12.639Z,2828.00
2022-11-05T08:56:12.652Z,2832.00
2022-11-05T08:57:12.622Z,2840.00
2022-11-05T08:58:12.758Z,2840.00
2022-11-05T08:59:12.597Z,2844.00
2022-11-05T09:00:12.580Z,2844.00
2022-11-05T09:01:12.693Z,2860.00
2022-11-05T09:02:12.743Z,2868.00
2022-11-05T09:03:12.894Z,2868.00
2022-11-05T09:04:12.538Z,2860.00
2022-11-05T09:05:12.534Z,2864.00
2022-11-05T09:06:12.556Z,2864.00
2022-11-05T09:07:12.510Z,2864.00
2022-11-05T09:08:12.504Z,2868.00
2022-11-05T09:09:12.523Z,2864.00
2022-11-05T09:10:12.502Z,2868.00
2022-11-05T09:11:12.485Z,2868.00
2022-11-05T09:12:13.238Z,2868.00
2022-11-05T09:13:18.285Z,2868.00
2022-11-05T09:14:13.460Z,2860.00
2022-11-05T09:15:12.426Z,2856.00
2022-11-05T09:16:12.423Z,2856.00
2022-11-05T09:17:12.437Z,2864.00
2022-11-05T09:18:12.399Z,2864.00
2022-11-05T09:19:12.412Z,2868.00
2022-11-05T09:20:12.372Z,2868.00
2022-11-05T09:21:12.362Z,2872.00
2022-11-05T09:22:12.369Z,2876.00
2022-11-05T09:23:12.809Z,2880.00
2022-11-05T09:24:12.344Z,2884.00
2022-11-05T09:25:12.324Z,2876.00
2022-11-05T09:26:12.306Z,2880.00
2022-11-05T09:27:12.312Z,2884.00
2022-11-05T09:28:16.160Z,2884.00
2022-11-05T09:29:14.523Z,2880.00
2022-11-05T09:30:12.263Z,2880.00
2022-11-05T09:31:12.298Z,2884.00
2022-11-05T09:32:12.233Z,2884.00
2022-11-05T09:33:12.848Z,2892.00
2022-11-05T09:34:12.237Z,2896.00
2022-11-05T09:35:12.219Z,2896.00
2022-11-05T09:36:12.197Z,2904.00
2022-11-05T09:37:12.192Z,2904.00
2022-11-05T09:38:12.211Z,2900.00
2022-11-05T09:39:12.190Z,2896.00
2022-11-05T09:40:12.155Z,2892.00
2022-11-05T09:41:12.166Z,2892.00
2022-11-05T09:42:12.143Z,2888.00
2022-11-05T09:43:12.519Z,2892.00
2022-11-05T09:44:12.125Z,2888.00
2022-11-05T09:45:12.107Z,2896.00
2022-11-05T09:46:12.100Z,2892.00
2022-11-05T09:47:12.106Z,2900.00
2022-11-05T09:48:12.079Z,2900.00
2022-11-05T09:49:12.182Z,2904.00
2022-11-05T09:50:12.196Z,2900.00
2022-11-05T09:51:12.052Z,2896.00
2022-11-05T09:52:12.074Z,2884.00
2022-11-05T09:53:12.372Z,2880.00
2022-11-05T09:54:12.005Z,2880.00
2022-11-05T09:55:12.021Z,2880.00
2022-11-05T09:56:11.981Z,2880.00
2022-11-05T09:57:11.984Z,2876.00
2022-11-05T09:58:11.996Z,2876.00
2022-11-05T09:59:11.957Z,2880.00
2022-11-05T10:00:12.025Z,2884.00
2022-11-05T10:01:12.087Z,2888.00
2022-11-05T10:02:12.062Z,2888.00
2022-11-05T10:03:12.341Z,2888.00
2022-11-05T10:04:11.917Z,2892.00
2022-11-05T10:05:11.970Z,2888.00
2022-11-05T10:06:11.900Z,2884.00
2022-11-05T10:07:11.887Z,2884.00
2022-11-05T10:08:11.884Z,2888.00
2022-11-05T10:09:11.852Z,2884.00
2022-11-05T10:10:11.833Z,2888.00
2022-11-05T10:11:11.825Z,2892.00
2022-11-05T10:12:11.853Z,2888.00
2022-11-05T10:13:12.174Z,2888.00
2022-11-05T10:14:11.808Z,2884.00
2022-11-05T10:15:11.802Z,2888.00
2022-11-05T10:16:11.777Z,2884.00
2022-11-05T10:17:11.761Z,2884.00
2022-11-05T10:18:11.766Z,2884.00
2022-11-05T10:19:11.764Z,2892.00
2022-11-05T10:20:11.734Z,2892.00
2022-11-05T10:21:11.734Z,2892.00
2022-11-05T10:22:11.752Z,2896.00
2022-11-05T10:23:11.930Z,2892.00
2022-11-05T10:24:11.703Z,2920.00
2022-11-05T10:25:11.704Z,2936.00
2022-11-05T10:26:11.671Z,2960.00
2022-11-05T10:27:11.673Z,2884.00
2022-11-05T10:28:11.652Z,3000.00
2022-11-05T10:29:11.626Z,2912.00
2022-11-05T10:30:11.635Z,2944.00
2022-11-05T10:31:11.618Z,2876.00
2022-11-05T10:32:11.602Z,2904.00
2022-11-05T10:33:11.917Z,2888.00
2022-11-05T10:34:11.583Z,2872.00
2022-11-05T10:35:11.586Z,2864.00
2022-11-05T10:36:11.570Z,2852.00
2022-11-05T10:37:11.561Z,2840.00
2022-11-05T10:38:11.549Z,2832.00
2022-11-05T10:39:11.542Z,2828.00
2022-11-05T10:40:11.535Z,2828.00
2022-11-05T10:41:11.500Z,2828.00
2022-11-05T10:42:11.496Z,2824.00
2022-11-05T10:43:11.790Z,2824.00
2022-11-05T10:44:14.747Z,2820.00
2022-11-05T10:45:12.455Z,2824.00
2022-11-05T10:46:11.457Z,2824.00
2022-11-05T10:47:11.438Z,2824.00
2022-11-05T10:48:11.445Z,2820.00
2022-11-05T10:49:11.447Z,2824.00
2022-11-05T10:50:11.403Z,2824.00
2022-11-05T10:51:11.405Z,2832.00
2022-11-05T10:52:11.388Z,2832.00
2022-11-05T10:53:11.771Z,2836.00
2022-11-05T10:54:11.388Z,2832.00
2022-11-05T10:55:11.370Z,2808.00
2022-11-05T10:56:11.345Z,2796.00
2022-11-05T10:57:11.344Z,2812.00
2022-11-05T10:58:11.377Z,2832.00
2022-11-05T10:59:12.381Z,2828.00
2022-11-05T11:00:11.313Z,2828.00
2022-11-05T11:01:11.430Z,2820.00
2022-11-05T11:02:11.301Z,2820.00
2022-11-05T11:03:11.692Z,2816.00
2022-11-05T11:04:11.274Z,2816.00
2022-11-05T11:05:11.250Z,2816.00
2022-11-05T11:06:11.254Z,2820.00
2022-11-05T11:07:11.240Z,2816.00
2022-11-05T11:08:11.225Z,2820.00
2022-11-05T11:09:11.384Z,2816.00
2022-11-05T11:10:11.193Z,2820.00
2022-11-05T11:11:11.205Z,2820.00
2022-11-05T11:12:11.175Z,2820.00
2022-11-05T11:13:11.394Z,2824.00
2022-11-05T11:14:11.159Z,2828.00
2022-11-05T11:15:11.151Z,2828.00
2022-11-05T11:16:11.133Z,2828.00
2022-11-05T11:17:11.124Z,2824.00
2022-11-05T11:18:11.129Z,2824.00
2022-11-05T11:19:11.098Z,2828.00
2022-11-05T11:20:11.089Z,2828.00
2022-11-05T11:21:11.074Z,2828.00
2022-11-05T11:22:11.060Z,2828.00
2022-11-05T11:23:11.337Z,2828.00
2022-11-05T11:24:11.059Z,2828.00
2022-11-05T11:25:11.072Z,2828.00
2022-11-05T11:26:11.028Z,2832.00
2022-11-05T11:27:11.017Z,2832.00
2022-11-05T11:28:11.002Z,2832.00
2022-11-05T11:29:10.994Z,2836.00
2022-11-05T11:30:10.994Z,2836.00
2022-11-05T11:31:10.991Z,2832.00
2022-11-05T11:32:10.973Z,2836.00
2022-11-05T11:33:11.283Z,2840.00
2022-11-05T11:34:10.951Z,2840.00
2022-11-05T11:35:10.938Z,2840.00
2022-11-05T11:36:10.915Z,2840.00
2022-11-05T11:37:14.055Z,2844.00
2022-11-05T11:38:11.897Z,2852.00
2022-11-05T11:39:10.894Z,2848.00
2022-11-05T11:40:11.022Z,2848.00
2022-11-05T11:41:10.895Z,2848.00
2022-11-05T11:42:10.849Z,2852.00
2022-11-05T11:43:20.939Z,2856.00
2022-11-05T11:44:19.395Z,2868.00
2022-11-05T11:45:18.938Z,2908.00
2022-11-05T11:46:18.386Z,2952.00
2022-11-05T11:47:19.353Z,2988.00
2022-11-05T11:48:18.357Z,3052.00
2022-11-05T11:49:19.577Z,3136.00
2022-11-05T11:50:10.820Z,3336.00
2022-11-05T11:51:11.069Z,3680.00
2022-11-05T11:52:10.771Z,4612.00
2022-11-05T11:53:11.043Z,4816.00
2022-11-05T11:54:10.719Z,3880.00
2022-11-05T11:55:10.725Z,4140.00
2022-11-05T11:56:10.795Z,4984.00
2022-11-05T11:57:15.112Z,5336.00
2022-11-05T11:58:10.688Z,4052.00
2022-11-05T11:59:10.681Z,3368.00
2022-11-05T12:00:10.655Z,2924.00
2022-11-05T12:01:10.675Z,2828.00
2022-11-05T12:02:10.765Z,2984.00
2022-11-05T12:03:10.720Z,3260.00
2022-11-05T12:04:10.623Z,2904.00
2022-11-05T12:05:10.607Z,2740.00
2022-11-05T12:06:10.588Z,2664.00
2022-11-05T12:07:10.686Z,2836.00
2022-11-05T12:08:10.569Z,2700.00
2022-11-05T12:09:10.575Z,2760.00
2022-11-05T12:10:10.564Z,2876.00
2022-11-05T12:11:10.542Z,2872.00
2022-11-05T12:12:10.519Z,2700.00
2022-11-05T12:13:11.016Z,2880.00
2022-11-05T12:14:10.510Z,2888.00
2022-11-05T12:15:10.494Z,2912.00
2022-11-05T12:16:10.531Z,2920.00
2022-11-05T12:17:10.515Z,2928.00
2022-11-05T12:18:10.473Z,3024.00
2022-11-05T12:19:10.458Z,3236.00
2022-11-05T12:20:10.444Z,3408.00
2022-11-05T12:21:10.431Z,3240.00
2022-11-05T12:22:10.443Z,3012.00
2022-11-05T12:23:10.866Z,2936.00
2022-11-05T12:24:10.445Z,3028.00
2022-11-05T12:25:10.393Z,3116.00
2022-11-05T12:26:10.393Z,2944.00
2022-11-05T12:27:10.381Z,2900.00
2022-11-05T12:28:10.352Z,2936.00
2022-11-05T12:29:18.889Z,3040.00
2022-11-05T12:30:11.341Z,3168.00
2022-11-05T12:31:10.329Z,3148.00
2022-11-05T12:32:19.178Z,3272.00
2022-11-05T12:33:10.705Z,3324.00
2022-11-05T12:34:17.938Z,3396.00
2022-11-05T12:35:10.376Z,3316.00
2022-11-05T12:36:10.378Z,3336.00
2022-11-05T12:37:10.261Z,3204.00
2022-11-05T12:38:10.278Z,2992.00
2022-11-05T12:39:10.256Z,2924.00
2022-11-05T12:40:10.241Z,2896.00
2022-11-05T12:41:10.222Z,2912.00
2022-11-05T12:42:10.284Z,2968.00
2022-11-05T12:43:11.987Z,3036.00